Logo AVAMET
Benvolgut visitant, si us plau, ingressa Recuperar contrasenya

València Penya-roja

Dades diàries. Acumulats / Últims 30 dies disponibles

Data Temperatura (°C) Humitat rel. (%) Pressió rel. (hPa) Vent (km/h) Precipitació
Mínima Mitjana Màxima Amplitud
tèrmica
Mínima Mitjana Màxima Mínima Mitjana Màxima Predom. Mitjana Ràfega
màxima
Total
(mm)
Índex-n
Mínima Mitjana Màxima Mínima Mitjana Màxima n
0 a 1
P0 max
mm 5'
Dades mensuals acumulades fins l'últim dia disponible
08/2019 20,6 24,5 27,3 26,9 27,0 29,9 40,9 20,3 16 72 92 1.002 1.009 1.015   7,8 55,1 1,6
Dades anuals acumulades fins l'últim dia disponible
2019 2,7 15,2 27,3 18,6 13,2 22,5 40,9 38,2 11 63 99 987 1.011 1.030   8,4 72,4 107,4
Últims 30 dies disponibles
22-08-2019 20,6     24,6     28,5 7,9 46 68 80 1.013 1.014 1.015 ENE 7,2 23,4 0,0
21-08-2019 22,3     24,6     27,0 4,7 60 72 90 1.013 1.014 1.015 ENE 7,7 34,2 1,5 0,34 0,20
20-08-2019 24,8     25,9     28,5 3,7 54 72 83 1.008 1.011 1.015 NE 12,4 55,1 0,0
19-08-2019 25,5     27,1     29,0 3,5 63 80 91 1.006 1.008 1.010 NE 10,9 34,2 0,0
18-08-2019 24,7     27,1     29,4 4,7 67 79 88 1.004 1.006 1.008 ENE 7,6 31,7 0,0
17-08-2019 24,0     26,6     28,7 4,7 69 78 85 1.007 1.009 1.011 ENE 7,4 30,6 0,0
16-08-2019 25,2     26,7     28,1 2,9 68 78 85 1.009 1.011 1.013 ENE 10,1 29,5 0,0
15-08-2019 24,0     26,6     29,3 5,3 60 75 83 1.010 1.012 1.013 ENE 7,5 28,1 0,0
14-08-2019 23,2     26,3     29,5 6,3 56 71 82 1.009 1.012 1.014 E 7,3 29,5 0,0
13-08-2019 24,6     25,6     27,1 2,5 40 60 72 1.011 1.013 1.014 ENE 8,1 28,1 0,0
12-08-2019 25,8     27,1     28,9 3,1 43 68 86 1.006 1.009 1.013 ENE 7,9 33,1 0,0
11-08-2019 26,1     28,0     30,9 4,8 61 79 88 1.005 1.007 1.010 ENE 8,2 25,6 0,0
10-08-2019 27,3     29,7     33,5 6,2 26 67 89 1.006 1.009 1.011 ENE 8,3 34,2 0,0
09-08-2019 25,1     31,7     40,9 15,8 16 47 80 1.004 1.006 1.007 W 9,0 41,8 0,0
08-08-2019 24,8     28,7     33,7 8,9 24 66 89 1.004 1.006 1.007 NE 7,8 28,1 0,0
07-08-2019 24,5     27,4     31,5 7,0 57 82 92 1.002 1.004 1.007 E 5,4 30,6 0,0
06-08-2019 25,9     27,3     29,5 3,6 71 82 90 1.003 1.006 1.008 E 6,8 27,0 0,0
05-08-2019 24,7     26,9     29,4 4,7 67 76 85 1.006 1.008 1.010 E 6,1 23,4 0,0
04-08-2019 24,4     26,6     29,5 5,1 61 72 85 1.006 1.008 1.009 ENE 6,9 24,5 0,0
03-08-2019 23,6     26,4     29,0 5,4 56 70 79 1.006 1.009 1.010 E 5,5 23,4 0,0
02-08-2019 24,1     26,1     28,3 4,2 51 71 78 1.007 1.009 1.010 ENE 6,0 24,5 0,1
01-08-2019 23,0     25,5     27,6 4,6 62 73 79 1.005 1.008 1.010 ENE 7,2 27,0 0,0
31-07-2019 24,4     25,9     27,5 3,1 54 73 84 1.009 1.010 1.012 ENE 9,6 35,6 0,1
30-07-2019 24,4     26,5     28,5 4,1 57 72 81 1.004 1.007 1.010 NE 10,3 40,3 0,0
29-07-2019 23,2     26,9     30,9 7,7 53 65 74 1.002 1.004 1.006 E 8,3 29,5 0,0
28-07-2019 23,0     25,9     28,1 5,1 32 51 76 1.002 1.004 1.005 NE 11,1 35,6 0,0
27-07-2019 23,4     28,0     34,9 11,5 11 52 82 996 999 1.003 NW 12,4 57,6 0,0
26-07-2019 25,3     27,1     28,9 3,6 58 69 80 1.002 1.004 1.007 ENE 6,6 33,1 0,0
25-07-2019 24,8     27,9     30,6 5,8 44 62 76 1.006 1.008 1.010 ENE 6,2 25,6 0,0
24-07-2019 24,0     28,2     31,9 7,9 39 57 73 1.008 1.010 1.011 E 4,8 22,0 0,0
Últims 13 mesos disponibles
07/2019 15,5 23,8 26,6 26,8 27,4 29,6 35,5 20,0 51 68 79 999 1.008 1.015 E 7,5 57,6 3,9
06/2019 15,0 19,5 24,0 22,6 20,4 25,8 33,3 18,3 38 66 81 1.002 1.009 1.016 ENE 7,7 72,4 0,0
05/2019 11,1 16,1 21,3 18,9 18,1 22,1 32,0 20,9 44 66 84 999 1.009 1.018 ENE 8,5 64,8 18,4
04/2019 10,2 12,7 16,0 15,8 15,6 19,5 29,6 19,4 40 64 96 993 1.007 1.019 NE 11,7 68,4 62,2
03/2019 9,1 11,4 16,2 15,2 13,8 19,5 29,2 20,1 40 57 83 1.004 1.017 1.024 NNE 7,8 64,8 19,1
02/2019 2,7 7,7 12,3 12,1 13,2 17,8 23,8 21,1 27 60 73 988 1.019 1.028 WNW 6,3 42,8 0,0
01/2019 2,7 8,2 13,6 12,3 13,2 17,4 21,3 18,6 33 52 72 996 1.013 1.024 O 9,7 70,9 0,7
12/2018 6,8 10,5 14,4 14,0 14,5 19,0 24,4 17,6 45 62 78 1.002 1.019 1.025 ONO 8,2 58,7 8,6
11/2018 8,5 12,7 16,7 15,5 15,4 19,2 23,8 15,3 43 67 96 996 1.009 1.017 ONO 9,9 80,6 141,0
10/2018 8,4 16,3 20,7 19,4 14,1 22,9 27,4 19,0 37 67 86 994 1.008 1.019 NNO 7,6 79,6 175,7
09/2018 17,6 21,7 24,4 24,8 25,0 27,8 31,2 13,6 48 74 85 1.006 1.013 1.022 NE 6,3 42,8 149,3
08/2018 22,6 24,6 26,6 27,2 27,6 29,9 35,2 12,6 56 69 79 1.008 1.014 1.021 ENE 7,4 52,6 21,7
07/2018 23,0 24,1 25,4 26,6 27,3 29,4 35,6 12,6 46 69 79 1.010 1.015 1.020 ENE 7,7 55,1 2,2
Tots els anys disponibles
2018 3,9 15,9 26,6 18,9 9,3 22,5 35,6 31,7 33 64 96 992 1.014 1.035 E 9,1 92,9 720,1
2017 2,4 15,8 26,3 19,0 10,2 22,6 36,1 33,7 52 63 71 1.016 1.019 1.023 N 8,4 90,7 321,7
2016 4,3 16,2 26,7 19,0 11,4 23,2 35,8 31,5 51 65 74 1.015 1.019 1.031 N 8,3 100,0 601,3
Temperatura (°C)
Humitat relativa (%)
Velocitat del vent i ràfega màxima (km/h)
Direcció del vent (°)
Precipitació (mm)
Nota sobre les dades: s'avisa a l'usuari de la provisionalitat i no oficialitat d'aquestes dades
Logo AVAMET blanc
Web allotjada a Sollutia
Llicència de Creative CommonsLa web d'AVAMET i els seus continguts estan subjectes a una llicència de
Reconeixement - No Comercial - Compartir igual
Properes estacions: Altea - Club Nàutic d'Altea (Soci), Ares del Maestrat (Ajuntament Soci),      - - - - -      Últimes estacions: Catadau - Urb. Lloma Molina (Inforatge), Ontinyent - El Pilar (Soci) - - -